sensor_id;sensor_type;location;lat;lon;timestamp;temperature;humidity
85164;DHT22;75530;49.300;6.846;2024-01-07T00:00:47;24.60;99.90
85164;DHT22;75530;49.300;6.846;2024-01-07T00:03:47;30.10;99.90
85164;DHT22;75530;49.300;6.846;2024-01-07T00:06:51;39.20;99.90
85164;DHT22;75530;49.300;6.846;2024-01-07T00:09:51;38.50;99.90
85164;DHT22;75530;49.300;6.846;2024-01-07T00:12:52;36.70;99.90
85164;DHT22;75530;49.300;6.846;2024-01-07T00:15:52;36.00;99.90
85164;DHT22;75530;49.300;6.846;2024-01-07T00:18:55;35.30;99.90
85164;DHT22;75530;49.300;6.846;2024-01-07T00:21:55;34.60;99.90
85164;DHT22;75530;49.300;6.846;2024-01-07T00:24:56;33.80;99.90
85164;DHT22;75530;49.300;6.846;2024-01-07T00:27:56;33.10;99.90
85164;DHT22;75530;49.300;6.846;2024-01-07T00:30:57;32.40;99.90
85164;DHT22;75530;49.300;6.846;2024-01-07T00:33:57;31.70;99.90
85164;DHT22;75530;49.300;6.846;2024-01-07T00:36:58;31.10;99.90
85164;DHT22;75530;49.300;6.846;2024-01-07T00:39:58;30.60;99.90
85164;DHT22;75530;49.300;6.846;2024-01-07T00:43:00;30.10;99.90
85164;DHT22;75530;49.300;6.846;2024-01-07T00:46:01;29.60;99.90
85164;DHT22;75530;49.300;6.846;2024-01-07T00:49:01;29.20;99.90
85164;DHT22;75530;49.300;6.846;2024-01-07T00:52:02;28.80;99.90
85164;DHT22;75530;49.300;6.846;2024-01-07T00:55:05;28.40;99.90
85164;DHT22;75530;49.300;6.846;2024-01-07T00:58:08;28.10;99.90
85164;DHT22;75530;49.300;6.846;2024-01-07T01:01:09;27.80;99.90
85164;DHT22;75530;49.300;6.846;2024-01-07T01:04:12;27.50;99.90
85164;DHT22;75530;49.300;6.846;2024-01-07T01:07:18;27.20;99.90
85164;DHT22;75530;49.300;6.846;2024-01-07T01:10:18;26.90;99.90
85164;DHT22;75530;49.300;6.846;2024-01-07T01:13:19;26.70;99.90
85164;DHT22;75530;49.300;6.846;2024-01-07T01:16:19;26.40;99.90
85164;DHT22;75530;49.300;6.846;2024-01-07T01:19:20;26.10;99.90
85164;DHT22;75530;49.300;6.846;2024-01-07T01:22:21;25.90;99.90
85164;DHT22;75530;49.300;6.846;2024-01-07T01:25:21;25.70;99.90
85164;DHT22;75530;49.300;6.846;2024-01-07T01:28:22;25.50;99.90
85164;DHT22;75530;49.300;6.846;2024-01-07T01:31:22;25.30;99.90
85164;DHT22;75530;49.300;6.846;2024-01-07T01:34:23;25.10;99.90
85164;DHT22;75530;49.300;6.846;2024-01-07T01:37:23;24.90;99.90
85164;DHT22;75530;49.300;6.846;2024-01-07T01:40:24;25.60;99.90
85164;DHT22;75530;49.300;6.846;2024-01-07T01:43:25;33.50;99.90
85164;DHT22;75530;49.300;6.846;2024-01-07T01:46:25;40.40;99.90
85164;DHT22;75530;49.300;6.846;2024-01-07T01:49:27;37.60;99.90
85164;DHT22;75530;49.300;6.846;2024-01-07T01:52:27;36.70;99.90
85164;DHT22;75530;49.300;6.846;2024-01-07T01:55:28;36.00;99.90
85164;DHT22;75530;49.300;6.846;2024-01-07T01:58:31;35.20;99.90
85164;DHT22;75530;49.300;6.846;2024-01-07T02:01:38;34.40;99.90
85164;DHT22;75530;49.300;6.846;2024-01-07T02:04:44;33.60;99.90
85164;DHT22;75530;49.300;6.846;2024-01-07T02:07:45;32.90;99.90
85164;DHT22;75530;49.300;6.846;2024-01-07T02:10:45;32.20;99.90
85164;DHT22;75530;49.300;6.846;2024-01-07T02:13:46;31.60;99.90
85164;DHT22;75530;49.300;6.846;2024-01-07T02:16:46;31.00;99.90
85164;DHT22;75530;49.300;6.846;2024-01-07T02:19:47;30.50;99.90
85164;DHT22;75530;49.300;6.846;2024-01-07T02:22:47;30.00;99.90
85164;DHT22;75530;49.300;6.846;2024-01-07T02:25:48;29.60;99.90
85164;DHT22;75530;49.300;6.846;2024-01-07T02:28:48;29.20;99.90
85164;DHT22;75530;49.300;6.846;2024-01-07T02:31:49;28.80;99.90
85164;DHT22;75530;49.300;6.846;2024-01-07T02:34:49;28.50;99.90
85164;DHT22;75530;49.300;6.846;2024-01-07T02:37:50;28.10;99.90
85164;DHT22;75530;49.300;6.846;2024-01-07T02:40:50;27.80;99.90
85164;DHT22;75530;49.300;6.846;2024-01-07T02:43:51;27.50;99.90
85164;DHT22;75530;49.300;6.846;2024-01-07T02:46:51;27.20;99.90
85164;DHT22;75530;49.300;6.846;2024-01-07T02:49:52;26.90;99.90
85164;DHT22;75530;49.300;6.846;2024-01-07T02:52:52;26.60;99.90
85164;DHT22;75530;49.300;6.846;2024-01-07T02:55:53;26.40;99.90
85164;DHT22;75530;49.300;6.846;2024-01-07T02:58:53;26.10;99.90
85164;DHT22;75530;49.300;6.846;2024-01-07T03:01:53;25.90;99.90
85164;DHT22;75530;49.300;6.846;2024-01-07T03:04:54;25.60;99.90
85164;DHT22;75530;49.300;6.846;2024-01-07T03:07:54;25.40;99.90
85164;DHT22;75530;49.300;6.846;2024-01-07T03:10:55;25.20;99.90
85164;DHT22;75530;49.300;6.846;2024-01-07T03:13:56;25.00;99.90
85164;DHT22;75530;49.300;6.846;2024-01-07T03:16:56;28.30;99.90
85164;DHT22;75530;49.300;6.846;2024-01-07T03:19:57;37.10;99.90
85164;DHT22;75530;49.300;6.846;2024-01-07T03:22:59;39.70;99.90
85164;DHT22;75530;49.300;6.846;2024-01-07T03:26:00;37.30;99.90
85164;DHT22;75530;49.300;6.846;2024-01-07T03:29:00;36.40;99.90
85164;DHT22;75530;49.300;6.846;2024-01-07T03:32:02;35.60;99.90
85164;DHT22;75530;49.300;6.846;2024-01-07T03:35:02;34.80;99.90
85164;DHT22;75530;49.300;6.846;2024-01-07T03:38:03;34.00;99.90
85164;DHT22;75530;49.300;6.846;2024-01-07T03:41:03;33.40;99.90
85164;DHT22;75530;49.300;6.846;2024-01-07T03:44:04;32.70;99.90
85164;DHT22;75530;49.300;6.846;2024-01-07T03:47:05;32.20;99.90
85164;DHT22;75530;49.300;6.846;2024-01-07T03:50:06;31.60;99.90
85164;DHT22;75530;49.300;6.846;2024-01-07T03:53:06;31.10;99.90
85164;DHT22;75530;49.300;6.846;2024-01-07T03:56:08;30.60;99.90
85164;DHT22;75530;49.300;6.846;2024-01-07T03:59:09;30.10;99.90
85164;DHT22;75530;49.300;6.846;2024-01-07T04:02:09;29.70;99.90
85164;DHT22;75530;49.300;6.846;2024-01-07T04:05:10;29.30;99.90
85164;DHT22;75530;49.300;6.846;2024-01-07T04:08:10;28.90;99.90
85164;DHT22;75530;49.300;6.846;2024-01-07T04:11:11;28.50;99.90
85164;DHT22;75530;49.300;6.846;2024-01-07T04:14:13;28.20;99.90
85164;DHT22;75530;49.300;6.846;2024-01-07T04:17:15;27.80;99.90
85164;DHT22;75530;49.300;6.846;2024-01-07T04:20:16;27.50;99.90
85164;DHT22;75530;49.300;6.846;2024-01-07T04:23:16;27.20;99.90
85164;DHT22;75530;49.300;6.846;2024-01-07T04:26:16;26.90;99.90
85164;DHT22;75530;49.300;6.846;2024-01-07T04:29:17;26.60;99.90
85164;DHT22;75530;49.300;6.846;2024-01-07T04:32:17;26.40;99.90
85164;DHT22;75530;49.300;6.846;2024-01-07T04:35:18;26.10;99.90
85164;DHT22;75530;49.300;6.846;2024-01-07T04:38:19;25.90;99.90
85164;DHT22;75530;49.300;6.846;2024-01-07T04:41:19;27.80;99.90
85164;DHT22;75530;49.300;6.846;2024-01-07T04:44:20;36.20;99.90
85164;DHT22;75530;49.300;6.846;2024-01-07T04:50:28;37.40;99.90
85164;DHT22;75530;49.300;6.846;2024-01-07T04:53:28;42.30;99.90
85164;DHT22;75530;49.300;6.846;2024-01-07T04:56:29;41.60;99.90
85164;DHT22;75530;49.300;6.846;2024-01-07T04:59:29;39.80;99.90
85164;DHT22;75530;49.300;6.846;2024-01-07T05:02:29;38.80;99.90
85164;DHT22;75530;49.300;6.846;2024-01-07T05:05:30;37.90;99.90
85164;DHT22;75530;49.300;6.846;2024-01-07T05:08:30;38.90;99.90
85164;DHT22;75530;49.300;6.846;2024-01-07T05:11:31;42.50;99.90
85164;DHT22;75530;49.300;6.846;2024-01-07T05:14:32;40.40;99.90
85164;DHT22;75530;49.300;6.846;2024-01-07T05:17:32;39.20;99.90
85164;DHT22;75530;49.300;6.846;2024-01-07T05:20:33;38.40;99.90
85164;DHT22;75530;49.300;6.846;2024-01-07T05:23:33;37.60;99.90
85164;DHT22;75530;49.300;6.846;2024-01-07T05:26:41;39.80;99.90
85164;DHT22;75530;49.300;6.846;2024-01-07T05:29:45;42.70;99.90
85164;DHT22;75530;49.300;6.846;2024-01-07T05:32:49;40.50;99.90
85164;DHT22;75530;49.300;6.846;2024-01-07T05:35:50;39.10;99.90
85164;DHT22;75530;49.300;6.846;2024-01-07T05:38:50;38.40;99.90
85164;DHT22;75530;49.300;6.846;2024-01-07T05:41:51;37.60;99.90
85164;DHT22;75530;49.300;6.846;2024-01-07T05:44:51;40.40;99.90
85164;DHT22;75530;49.300;6.846;2024-01-07T05:47:52;43.10;99.90
85164;DHT22;75530;49.300;6.846;2024-01-07T05:50:52;40.80;99.90
85164;DHT22;75530;49.300;6.846;2024-01-07T05:53:53;39.30;99.90
85164;DHT22;75530;49.300;6.846;2024-01-07T05:56:56;38.40;99.90
85164;DHT22;75530;49.300;6.846;2024-01-07T05:59:57;37.70;99.90
85164;DHT22;75530;49.300;6.846;2024-01-07T06:02:57;42.10;99.90
85164;DHT22;75530;49.300;6.846;2024-01-07T06:05:58;43.10;99.90
85164;DHT22;75530;49.300;6.846;2024-01-07T06:08:58;40.70;99.90
85164;DHT22;75530;49.300;6.846;2024-01-07T06:11:59;39.30;99.90
85164;DHT22;75530;49.300;6.846;2024-01-07T06:14:59;38.30;99.90
85164;DHT22;75530;49.300;6.846;2024-01-07T06:18:00;37.60;99.90
85164;DHT22;75530;49.300;6.846;2024-01-07T06:21:00;42.60;99.90
85164;DHT22;75530;49.300;6.846;2024-01-07T06:24:01;43.10;99.90
85164;DHT22;75530;49.300;6.846;2024-01-07T06:27:01;40.60;99.90
85164;DHT22;75530;49.300;6.846;2024-01-07T06:30:04;39.10;99.90
85164;DHT22;75530;49.300;6.846;2024-01-07T06:33:06;38.10;99.90
85164;DHT22;75530;49.300;6.846;2024-01-07T06:36:07;38.60;99.90
85164;DHT22;75530;49.300;6.846;2024-01-07T06:39:07;43.90;99.90
85164;DHT22;75530;49.300;6.846;2024-01-07T06:42:08;42.00;99.90
85164;DHT22;75530;49.300;6.846;2024-01-07T06:45:09;39.90;99.90
85164;DHT22;75530;49.300;6.846;2024-01-07T06:48:09;38.60;99.90
85164;DHT22;75530;49.300;6.846;2024-01-07T06:51:10;37.70;99.90
85164;DHT22;75530;49.300;6.846;2024-01-07T06:54:10;42.70;99.90
85164;DHT22;75530;49.300;6.846;2024-01-07T06:57:11;43.40;99.90
85164;DHT22;75530;49.300;6.846;2024-01-07T07:00:12;40.80;99.90
85164;DHT22;75530;49.300;6.846;2024-01-07T07:03:12;39.20;99.90
85164;DHT22;75530;49.300;6.846;2024-01-07T07:06:13;38.10;99.90
85164;DHT22;75530;49.300;6.846;2024-01-07T07:09:13;39.10;99.90
85164;DHT22;75530;49.300;6.846;2024-01-07T07:12:15;44.20;99.90
85164;DHT22;75530;49.300;6.846;2024-01-07T07:15:15;42.20;99.90
85164;DHT22;75530;49.300;6.846;2024-01-07T07:18:16;40.00;99.90
85164;DHT22;75530;49.300;6.846;2024-01-07T07:21:16;38.80;99.90
85164;DHT22;75530;49.300;6.846;2024-01-07T07:24:17;37.80;99.90
85164;DHT22;75530;49.300;6.846;2024-01-07T07:27:17;41.20;99.90
85164;DHT22;75530;49.300;6.846;2024-01-07T07:30:19;44.10;99.90
85164;DHT22;75530;49.300;6.846;2024-01-07T07:33:19;41.50;99.90
85164;DHT22;75530;49.300;6.846;2024-01-07T07:36:19;39.70;99.90
85164;DHT22;75530;49.300;6.846;2024-01-07T07:39:20;38.50;99.90
85164;DHT22;75530;49.300;6.846;2024-01-07T07:42:21;37.60;99.90
85164;DHT22;75530;49.300;6.846;2024-01-07T07:45:21;42.90;99.90
85164;DHT22;75530;49.300;6.846;2024-01-07T07:48:22;43.60;99.90
85164;DHT22;75530;49.300;6.846;2024-01-07T07:51:23;40.90;99.90
85164;DHT22;75530;49.300;6.846;2024-01-07T07:54:23;39.30;99.90
85164;DHT22;75530;49.300;6.846;2024-01-07T07:57:25;38.20;99.90
85164;DHT22;75530;49.300;6.846;2024-01-07T08:00:26;37.80;99.90
85164;DHT22;75530;49.300;6.846;2024-01-07T08:03:26;43.60;99.90
85164;DHT22;75530;49.300;6.846;2024-01-07T08:06:27;43.10;99.90
85164;DHT22;75530;49.300;6.846;2024-01-07T08:09:27;40.60;99.90
85164;DHT22;75530;49.300;6.846;2024-01-07T08:12:28;39.10;99.90
85164;DHT22;75530;49.300;6.846;2024-01-07T08:15:28;38.00;99.90
85164;DHT22;75530;49.300;6.846;2024-01-07T08:18:29;38.20;99.90
85164;DHT22;75530;49.300;6.846;2024-01-07T08:21:29;44.00;99.90
85164;DHT22;75530;49.300;6.846;2024-01-07T08:24:30;42.70;99.90
85164;DHT22;75530;49.300;6.846;2024-01-07T08:27:30;40.30;99.90
85164;DHT22;75530;49.300;6.846;2024-01-07T08:30:32;38.90;99.90
85164;DHT22;75530;49.300;6.846;2024-01-07T08:33:33;37.80;99.90
85164;DHT22;75530;49.300;6.846;2024-01-07T08:36:33;39.60;99.90
85164;DHT22;75530;49.300;6.846;2024-01-07T08:39:34;44.20;99.90
85164;DHT22;75530;49.300;6.846;2024-01-07T08:42:35;42.10;99.90
85164;DHT22;75530;49.300;6.846;2024-01-07T08:45:35;40.00;99.90
85164;DHT22;75530;49.300;6.846;2024-01-07T08:48:36;38.70;99.90
85164;DHT22;75530;49.300;6.846;2024-01-07T08:51:36;37.60;99.90
85164;DHT22;75530;49.300;6.846;2024-01-07T08:54:37;40.90;99.90
85164;DHT22;75530;49.300;6.846;2024-01-07T08:57:38;44.20;99.90
85164;DHT22;75530;49.300;6.846;2024-01-07T09:00:38;41.60;99.90
85164;DHT22;75530;49.300;6.846;2024-01-07T09:03:39;39.70;99.90
85164;DHT22;75530;49.300;6.846;2024-01-07T09:06:39;38.50;99.90
85164;DHT22;75530;49.300;6.846;2024-01-07T09:09:41;37.50;99.90
85164;DHT22;75530;49.300;6.846;2024-01-07T09:12:41;41.40;99.90
85164;DHT22;75530;49.300;6.846;2024-01-07T09:15:41;44.20;99.90
85164;DHT22;75530;49.300;6.846;2024-01-07T09:18:42;41.50;99.90
85164;DHT22;75530;49.300;6.846;2024-01-07T09:21:45;39.70;99.90
85164;DHT22;75530;49.300;6.846;2024-01-07T09:24:46;38.40;99.90
85164;DHT22;75530;49.300;6.846;2024-01-07T09:27:46;37.40;99.90
85164;DHT22;75530;49.300;6.846;2024-01-07T09:34:25;43.60;99.90
85164;DHT22;75530;49.300;6.846;2024-01-07T09:37:25;40.00;99.90
85164;DHT22;75530;49.300;6.846;2024-01-07T09:40:26;38.10;99.90
85164;DHT22;75530;49.300;6.846;2024-01-07T09:43:26;40.80;99.90
85164;DHT22;75530;49.300;6.846;2024-01-07T09:46:27;43.40;99.90
85164;DHT22;75530;49.300;6.846;2024-01-07T09:49:29;40.90;99.90
85164;DHT22;75530;49.300;6.846;2024-01-07T09:52:29;39.10;99.90
85164;DHT22;75530;49.300;6.846;2024-01-07T09:55:33;38.10;99.90
85164;DHT22;75530;49.300;6.846;2024-01-07T09:58:37;37.30;99.90
85164;DHT22;75530;49.300;6.846;2024-01-07T10:01:38;36.60;99.90
85164;DHT22;75530;49.300;6.846;2024-01-07T10:04:39;36.80;99.90
85164;DHT22;75530;49.300;6.846;2024-01-07T10:07:40;46.10;99.90
85164;DHT22;75530;49.300;6.846;2024-01-07T10:10:40;55.20;99.90
85164;DHT22;75530;49.300;6.846;2024-01-07T10:13:41;55.90;99.90
85164;DHT22;75530;49.300;6.846;2024-01-07T10:16:41;53.80;99.90
85164;DHT22;75530;49.300;6.846;2024-01-07T10:19:45;51.60;99.90
85164;DHT22;75530;49.300;6.846;2024-01-07T10:22:51;54.50;99.90
85164;DHT22;75530;49.300;6.846;2024-01-07T10:25:52;56.20;99.90
85164;DHT22;75530;49.300;6.846;2024-01-07T10:28:55;54.50;99.90
85164;DHT22;75530;49.300;6.846;2024-01-07T10:31:57;52.00;99.90
85164;DHT22;75530;49.300;6.846;2024-01-07T10:35:01;53.60;99.90
85164;DHT22;75530;49.300;6.846;2024-01-07T10:38:02;56.60;99.90
85164;DHT22;75530;49.300;6.846;2024-01-07T10:41:02;55.90;99.90
85164;DHT22;75530;49.300;6.846;2024-01-07T10:44:05;53.90;99.90
85164;DHT22;75530;49.300;6.846;2024-01-07T10:47:06;52.00;99.90
85164;DHT22;75530;49.300;6.846;2024-01-07T10:50:07;51.70;99.90
85164;DHT22;75530;49.300;6.846;2024-01-07T10:53:08;56.00;99.90
85164;DHT22;75530;49.300;6.846;2024-01-07T10:56:17;57.10;99.90
85164;DHT22;75530;49.300;6.846;2024-01-07T11:07:08;39.80;99.90
85164;DHT22;75530;49.300;6.846;2024-01-07T11:10:39;39.00;99.90
85164;DHT22;75530;49.300;6.846;2024-01-07T11:13:52;38.20;99.90
85164;DHT22;75530;49.300;6.846;2024-01-07T11:17:16;37.40;99.90
85164;DHT22;75530;49.300;6.846;2024-01-07T11:20:39;40.00;99.90
85164;DHT22;75530;49.300;6.846;2024-01-07T11:23:46;44.00;99.90
85164;DHT22;75530;49.300;6.846;2024-01-07T11:26:56;41.30;99.90
85164;DHT22;75530;49.300;6.846;2024-01-07T11:30:02;39.60;99.90
85164;DHT22;75530;49.300;6.846;2024-01-07T11:33:04;38.60;99.90
85164;DHT22;75530;49.300;6.846;2024-01-07T11:36:10;38.00;99.90
85164;DHT22;75530;49.300;6.846;2024-01-07T11:39:14;37.40;99.90
85164;DHT22;75530;49.300;6.846;2024-01-07T11:42:20;37.10;99.90
85164;DHT22;75530;49.300;6.846;2024-01-07T11:45:23;43.10;99.90
85164;DHT22;75530;49.300;6.846;2024-01-07T11:48:24;43.40;99.90
85164;DHT22;75530;49.300;6.846;2024-01-07T11:51:26;40.80;99.90
85164;DHT22;75530;49.300;6.846;2024-01-07T11:58:07;38.40;99.90
85164;DHT22;75530;49.300;6.846;2024-01-07T12:01:07;37.70;99.90
85164;DHT22;75530;49.300;6.846;2024-01-07T12:04:08;37.10;99.90
85164;DHT22;75530;49.300;6.846;2024-01-07T12:07:09;39.10;99.90
85164;DHT22;75530;49.300;6.846;2024-01-07T12:10:10;44.60;99.90
85164;DHT22;75530;49.300;6.846;2024-01-07T12:13:17;43.50;99.90
85164;DHT22;75530;49.300;6.846;2024-01-07T12:16:21;41.10;99.90
85164;DHT22;75530;49.300;6.846;2024-01-07T12:19:31;39.90;99.90
85164;DHT22;75530;49.300;6.846;2024-01-07T12:22:32;39.10;99.90
85164;DHT22;75530;49.300;6.846;2024-01-07T12:25:32;38.40;99.90
85164;DHT22;75530;49.300;6.846;2024-01-07T12:28:57;37.90;99.90
85164;DHT22;75530;49.300;6.846;2024-01-07T12:32:13;37.20;99.90
85164;DHT22;75530;49.300;6.846;2024-01-07T12:39:22;44.60;99.90
85164;DHT22;75530;49.300;6.846;2024-01-07T14:16:16;38.70;99.90
85164;DHT22;75530;49.300;6.846;2024-01-07T14:19:16;37.70;99.90
85164;DHT22;75530;49.300;6.846;2024-01-07T14:22:26;37.50;99.90
85164;DHT22;75530;49.300;6.846;2024-01-07T14:25:32;43.60;99.90
85164;DHT22;75530;49.300;6.846;2024-01-07T14:28:35;43.30;99.90
85164;DHT22;75530;49.300;6.846;2024-01-07T14:31:38;40.90;99.90
85164;DHT22;75530;49.300;6.846;2024-01-07T14:34:41;39.70;99.90
85164;DHT22;75530;49.300;6.846;2024-01-07T14:37:45;39.00;99.90
85164;DHT22;75530;49.300;6.846;2024-01-07T14:40:46;38.30;99.90
85164;DHT22;75530;49.300;6.846;2024-01-07T14:43:46;37.80;99.90
85164;DHT22;75530;49.300;6.846;2024-01-07T14:46:47;37.20;99.90
85164;DHT22;75530;49.300;6.846;2024-01-07T14:49:51;41.30;99.90
85164;DHT22;75530;49.300;6.846;2024-01-07T14:56:14;42.20;99.90
85164;DHT22;75530;49.300;6.846;2024-01-07T15:06:43;38.30;99.90
85164;DHT22;75530;49.300;6.846;2024-01-07T15:09:48;37.60;99.90
